createdAt,value
2018-11-04T00:00:57.018Z,1012.69
2018-11-04T00:02:49.807Z,1012.68
2018-11-04T00:03:49.773Z,1012.70
2018-11-04T00:05:42.588Z,1012.65
2018-11-04T00:06:42.517Z,1012.64
2018-11-04T00:08:35.308Z,1012.55
2018-11-04T00:09:35.268Z,1012.51
2018-11-04T00:11:28.074Z,1012.52
2018-11-04T00:12:28.035Z,1012.52
2018-11-04T00:14:20.817Z,1012.54
2018-11-04T00:15:20.827Z,1012.49
2018-11-04T00:17:13.584Z,1012.48
2018-11-04T00:18:13.515Z,1012.44
2018-11-04T00:20:06.307Z,1012.39
2018-11-04T00:21:06.275Z,1012.45
2018-11-04T00:22:59.069Z,1012.47
2018-11-04T00:23:59.101Z,1012.49
2018-11-04T00:25:51.835Z,1012.50
2018-11-04T00:26:51.800Z,1012.44
2018-11-04T00:28:44.561Z,1012.46
2018-11-04T00:29:44.628Z,1012.51
2018-11-04T00:31:37.325Z,1012.48
2018-11-04T00:32:37.264Z,1012.44
2018-11-04T00:34:30.076Z,1012.40
2018-11-04T00:35:30.024Z,1012.39
2018-11-04T00:37:22.833Z,1012.38
2018-11-04T00:38:22.782Z,1012.37
2018-11-04T00:40:15.580Z,1012.32
2018-11-04T00:41:15.527Z,1012.32
2018-11-04T00:43:08.333Z,1012.30
2018-11-04T00:44:08.279Z,1012.27
2018-11-04T00:46:01.063Z,1012.22
2018-11-04T00:47:01.022Z,1012.23
2018-11-04T00:48:53.848Z,1012.25
2018-11-04T00:49:53.788Z,1012.21
2018-11-04T00:51:46.618Z,1012.17
2018-11-04T00:52:46.535Z,1012.21
2018-11-04T00:54:39.340Z,1012.18
2018-11-04T00:55:39.295Z,1012.21
2018-11-04T00:57:32.103Z,1012.16
2018-11-04T00:58:32.046Z,1012.12
2018-11-04T01:00:24.845Z,1012.12
2018-11-04T01:01:24.852Z,1012.08
2018-11-04T01:03:17.620Z,1012.10
2018-11-04T01:04:17.552Z,1012.06
2018-11-04T01:06:10.355Z,1012.06
2018-11-04T01:07:10.294Z,1012.04
2018-11-04T01:09:03.169Z,1012.00
2018-11-04T01:10:03.044Z,1012.01
2018-11-04T01:11:55.869Z,1012.01
2018-11-04T01:12:55.796Z,1011.99
2018-11-04T01:14:48.626Z,1011.99
2018-11-04T01:15:48.550Z,1011.95
2018-11-04T01:17:41.335Z,1011.92
2018-11-04T01:18:41.291Z,1011.91
2018-11-04T01:20:34.100Z,1011.89
2018-11-04T01:21:34.055Z,1011.87
2018-11-04T01:23:27.356Z,1011.85
2018-11-04T01:24:27.346Z,1011.81
2018-11-04T01:26:20.087Z,1011.77
2018-11-04T01:27:20.064Z,1011.76
2018-11-04T01:29:12.894Z,1011.70
2018-11-04T01:30:12.873Z,1011.69
2018-11-04T01:32:05.576Z,1011.62
2018-11-04T01:33:05.543Z,1011.63
2018-11-04T01:34:58.352Z,1011.64
2018-11-04T01:35:58.291Z,1011.60
2018-11-04T01:37:51.096Z,1011.53
2018-11-04T01:38:51.042Z,1011.50
2018-11-04T01:40:43.851Z,1011.46
2018-11-04T01:41:43.797Z,1011.45
2018-11-04T01:43:36.628Z,1011.41
2018-11-04T01:44:36.556Z,1011.39
2018-11-04T01:46:29.358Z,1011.40
2018-11-04T01:47:29.301Z,1011.42
2018-11-04T01:49:22.097Z,1011.43
2018-11-04T01:50:22.052Z,1011.36
2018-11-04T01:52:14.870Z,1011.39
2018-11-04T01:53:14.806Z,1011.36
2018-11-04T01:55:07.596Z,1011.35
2018-11-04T01:56:07.548Z,1011.36
2018-11-04T01:58:00.363Z,1011.36
2018-11-04T01:59:00.298Z,1011.30
2018-11-04T02:00:53.112Z,1011.25
2018-11-04T02:01:53.052Z,1011.24
2018-11-04T02:03:45.853Z,1011.18
2018-11-04T02:04:45.801Z,1011.16
2018-11-04T02:06:38.612Z,1011.15
2018-11-04T02:07:38.557Z,1011.14
2018-11-04T02:09:31.363Z,1011.10
2018-11-04T02:10:31.309Z,1011.10
2018-11-04T02:12:24.654Z,1011.04
2018-11-04T02:13:24.609Z,1011.01
2018-11-04T02:15:17.424Z,1011.00
2018-11-04T02:16:17.364Z,1011.01
2018-11-04T02:18:10.172Z,1011.00
2018-11-04T02:19:10.127Z,1011.04
2018-11-04T02:21:02.923Z,1011.00
2018-11-04T02:22:02.867Z,1010.97
2018-11-04T02:23:55.663Z,1010.95
2018-11-04T02:24:55.624Z,1010.93
2018-11-04T02:26:48.427Z,1010.90
2018-11-04T02:27:48.375Z,1010.89
2018-11-04T02:29:41.171Z,1010.91
2018-11-04T02:30:41.119Z,1010.87
2018-11-04T02:32:33.927Z,1010.83
2018-11-04T02:33:33.871Z,1010.82
2018-11-04T02:35:26.664Z,1010.79
2018-11-04T02:36:26.619Z,1010.79
2018-11-04T02:38:19.440Z,1010.74
2018-11-04T02:39:19.370Z,1010.73
2018-11-04T02:41:12.173Z,1010.68
2018-11-04T02:42:12.130Z,1010.63
2018-11-04T02:44:04.943Z,1010.66
2018-11-04T02:45:04.886Z,1010.67
2018-11-04T02:46:57.785Z,1010.65
2018-11-04T02:47:57.648Z,1010.61
2018-11-04T02:49:50.436Z,1010.56
2018-11-04T02:50:50.412Z,1010.55
2018-11-04T02:52:43.210Z,1010.54
2018-11-04T02:53:43.151Z,1010.53
2018-11-04T02:55:36.439Z,1010.48
2018-11-04T02:56:36.393Z,1010.51
2018-11-04T02:58:29.195Z,1010.45
2018-11-04T02:59:29.142Z,1010.41
2018-11-04T03:01:21.932Z,1010.33
2018-11-04T03:02:21.891Z,1010.29
2018-11-04T03:04:14.695Z,1010.31
2018-11-04T03:05:14.644Z,1010.30
2018-11-04T03:07:07.446Z,1010.33
2018-11-04T03:08:07.400Z,1010.31
2018-11-04T03:10:00.207Z,1010.29
2018-11-04T03:11:00.152Z,1010.27
2018-11-04T03:12:52.951Z,1010.25
2018-11-04T03:13:52.910Z,1010.25
2018-11-04T03:15:45.716Z,1010.29
2018-11-04T03:16:45.682Z,1010.25
2018-11-04T03:18:38.452Z,1010.23
2018-11-04T03:19:38.422Z,1010.24
2018-11-04T03:21:31.225Z,1010.26
2018-11-04T03:22:31.156Z,1010.20
2018-11-04T03:24:23.977Z,1010.21
2018-11-04T03:25:23.911Z,1010.22
2018-11-04T03:27:16.710Z,1010.19
2018-11-04T03:28:16.663Z,1010.17
2018-11-04T03:30:09.477Z,1010.16
2018-11-04T03:31:09.416Z,1010.18
2018-11-04T03:33:02.202Z,1010.18
2018-11-04T03:34:02.178Z,1010.16
2018-11-04T03:35:54.988Z,1010.23
2018-11-04T03:36:54.927Z,1010.19
2018-11-04T03:38:47.722Z,1010.22
2018-11-04T03:39:47.671Z,1010.24
2018-11-04T03:41:40.488Z,1010.21
2018-11-04T03:42:40.422Z,1010.24
2018-11-04T03:44:33.229Z,1010.22
2018-11-04T03:45:33.171Z,1010.22
2018-11-04T03:47:25.954Z,1010.24
2018-11-04T03:48:25.921Z,1010.23
2018-11-04T03:50:18.747Z,1010.27
2018-11-04T03:51:18.692Z,1010.22
2018-11-04T03:53:11.498Z,1010.29
2018-11-04T03:54:11.441Z,1010.27
2018-11-04T03:56:04.253Z,1010.26
2018-11-04T03:57:04.206Z,1010.26
2018-11-04T03:58:57.042Z,1010.25
2018-11-04T03:59:57.018Z,1010.24
2018-11-04T04:01:49.814Z,1010.24
2018-11-04T04:02:49.768Z,1010.22
2018-11-04T04:04:43.062Z,1010.23
2018-11-04T04:05:43.008Z,1010.15
2018-11-04T04:07:35.808Z,1010.20
2018-11-04T04:08:35.752Z,1010.17
2018-11-04T04:10:28.539Z,1010.13
2018-11-04T04:11:28.498Z,1010.10
2018-11-04T04:13:21.307Z,1010.14
2018-11-04T04:14:21.254Z,1010.14
2018-11-04T04:16:14.057Z,1010.12
2018-11-04T04:17:14.004Z,1010.13
2018-11-04T04:19:06.797Z,1010.12
2018-11-04T04:20:06.749Z,1010.13
2018-11-04T04:21:59.555Z,1010.14
2018-11-04T04:22:59.507Z,1010.14
2018-11-04T04:24:52.292Z,1010.15
2018-11-04T04:25:52.255Z,1010.13
2018-11-04T04:27:45.067Z,1010.10
2018-11-04T04:28:45.019Z,1010.11
2018-11-04T04:30:37.789Z,1010.07
2018-11-04T04:31:37.755Z,1010.07
2018-11-04T04:33:30.563Z,1010.00
2018-11-04T04:34:30.508Z,1009.99
2018-11-04T04:36:23.289Z,1010.02
2018-11-04T04:37:23.259Z,1010.01
2018-11-04T04:39:16.074Z,1010.00
2018-11-04T04:40:16.005Z,1009.98
2018-11-04T04:42:08.817Z,1009.96
2018-11-04T04:43:08.755Z,1009.91
2018-11-04T04:45:01.545Z,1009.86
2018-11-04T04:46:01.505Z,1009.85
2018-11-04T04:47:54.305Z,1009.82
2018-11-04T04:48:54.254Z,1009.85
2018-11-04T04:50:47.048Z,1009.83
2018-11-04T04:51:47.006Z,1009.82
2018-11-04T04:53:39.811Z,1009.80
2018-11-04T04:54:39.758Z,1009.83
2018-11-04T04:56:32.549Z,1009.81
2018-11-04T04:57:32.515Z,1009.83
2018-11-04T04:59:25.315Z,1009.83
2018-11-04T05:00:25.257Z,1009.82
2018-11-04T05:02:18.069Z,1009.81
2018-11-04T05:03:18.000Z,1009.82
2018-11-04T05:05:10.814Z,1009.74
2018-11-04T05:06:10.759Z,1009.77
2018-11-04T05:08:03.566Z,1009.77
2018-11-04T05:09:03.508Z,1009.77
2018-11-04T05:10:56.295Z,1009.75
2018-11-04T05:11:56.254Z,1009.75
2018-11-04T05:13:49.084Z,1009.77
2018-11-04T05:14:49.005Z,1009.76
2018-11-04T05:16:41.801Z,1009.80
2018-11-04T05:17:41.761Z,1009.79
2018-11-04T05:19:34.572Z,1009.79
2018-11-04T05:20:34.511Z,1009.76
2018-11-04T05:22:27.297Z,1009.76
2018-11-04T05:23:27.273Z,1009.78
2018-11-04T05:25:20.552Z,1009.74
2018-11-04T05:26:20.502Z,1009.76
2018-11-04T05:28:13.296Z,1009.74
2018-11-04T05:29:13.252Z,1009.72
2018-11-04T05:31:06.057Z,1009.69
2018-11-04T05:32:06.003Z,1009.73
2018-11-04T05:33:58.917Z,1009.66
2018-11-04T05:34:58.755Z,1009.69
2018-11-04T05:36:51.565Z,1009.64
2018-11-04T05:37:51.510Z,1009.67
2018-11-04T05:39:44.318Z,1009.67
2018-11-04T05:40:44.259Z,1009.65
2018-11-04T05:42:37.064Z,1009.62
2018-11-04T05:43:37.008Z,1009.62
2018-11-04T05:45:29.813Z,1009.64
2018-11-04T05:46:29.757Z,1009.58
2018-11-04T05:48:22.563Z,1009.54
2018-11-04T05:49:22.519Z,1009.59
2018-11-04T05:51:15.334Z,1009.59
2018-11-04T05:52:15.272Z,1009.58
2018-11-04T05:54:08.077Z,1009.59
2018-11-04T05:55:08.029Z,1009.57
2018-11-04T05:57:00.844Z,1009.52
2018-11-04T05:58:00.794Z,1009.51
2018-11-04T05:59:53.594Z,1009.46
2018-11-04T06:00:53.539Z,1009.48
2018-11-04T06:02:46.373Z,1009.48
2018-11-04T06:03:46.304Z,1009.48
2018-11-04T06:05:39.109Z,1009.49
2018-11-04T06:06:39.053Z,1009.46
2018-11-04T06:08:31.840Z,1009.45
2018-11-04T06:09:31.802Z,1009.43
2018-11-04T06:11:24.622Z,1009.48
2018-11-04T06:12:24.576Z,1009.45
2018-11-04T06:14:17.374Z,1009.47
2018-11-04T06:15:17.333Z,1009.46
2018-11-04T06:17:10.138Z,1009.45
2018-11-04T06:18:10.075Z,1009.44
2018-11-04T06:20:02.878Z,1009.44
2018-11-04T06:21:02.839Z,1009.46
2018-11-04T06:22:55.640Z,1009.48
2018-11-04T06:23:55.585Z,1009.47
2018-11-04T06:25:48.406Z,1009.40
2018-11-04T06:26:48.342Z,1009.41
2018-11-04T06:28:41.163Z,1009.43
2018-11-04T06:29:41.095Z,1009.42
2018-11-04T06:31:33.904Z,1009.45
2018-11-04T06:32:33.864Z,1009.41
2018-11-04T06:34:26.653Z,1009.45
2018-11-04T06:35:26.611Z,1009.44
2018-11-04T06:37:19.416Z,1009.41
2018-11-04T06:38:19.365Z,1009.38
2018-11-04T06:40:12.167Z,1009.44
2018-11-04T06:41:12.198Z,1009.50
2018-11-04T06:43:04.931Z,1009.52
2018-11-04T06:44:04.892Z,1009.50
2018-11-04T06:45:57.724Z,1009.49
2018-11-04T06:46:57.661Z,1009.51
2018-11-04T06:48:50.445Z,1009.51
2018-11-04T06:49:50.388Z,1009.50
2018-11-04T06:51:43.680Z,1009.53
2018-11-04T06:52:43.635Z,1009.51
2018-11-04T06:54:36.454Z,1009.49
2018-11-04T06:55:36.400Z,1009.50
2018-11-04T06:57:29.187Z,1009.48
2018-11-04T06:58:29.146Z,1009.49
2018-11-04T07:00:21.959Z,1009.46
2018-11-04T07:01:21.915Z,1009.46
2018-11-04T07:03:14.735Z,1009.46
2018-11-04T07:04:14.656Z,1009.46
2018-11-04T07:06:07.458Z,1009.52
2018-11-04T07:07:07.411Z,1009.50
2018-11-04T07:09:00.270Z,1009.52
2018-11-04T07:10:00.168Z,1009.49
2018-11-04T07:11:52.986Z,1009.53
2018-11-04T07:12:52.937Z,1009.52
2018-11-04T07:14:45.746Z,1009.48
2018-11-04T07:15:45.697Z,1009.50
2018-11-04T07:17:38.490Z,1009.47
2018-11-04T07:18:38.452Z,1009.45
2018-11-04T07:20:31.283Z,1009.50
2018-11-04T07:21:31.208Z,1009.49
2018-11-04T07:23:24.013Z,1009.51
2018-11-04T07:24:23.972Z,1009.49
2018-11-04T07:26:16.793Z,1009.45
2018-11-04T07:27:16.733Z,1009.42
2018-11-04T07:29:09.559Z,1009.49
2018-11-04T07:30:09.492Z,1009.47
2018-11-04T07:32:02.357Z,1009.47
2018-11-04T07:33:02.258Z,1009.45
2018-11-04T07:34:55.083Z,1009.45
2018-11-04T07:35:55.004Z,1009.45
2018-11-04T07:37:47.806Z,1009.43
2018-11-04T07:38:47.764Z,1009.41
2018-11-04T07:40:40.584Z,1009.35
2018-11-04T07:41:40.522Z,1009.37
2018-11-04T07:43:33.320Z,1009.34
2018-11-04T07:44:33.281Z,1009.31
2018-11-04T07:46:26.085Z,1009.32
2018-11-04T07:47:26.037Z,1009.32
2018-11-04T07:49:19.328Z,1009.30
2018-11-04T07:50:19.284Z,1009.34
2018-11-04T07:52:12.096Z,1009.29
2018-11-04T07:53:12.050Z,1009.29
2018-11-04T07:55:04.849Z,1009.28
2018-11-04T07:56:04.811Z,1009.25
2018-11-04T07:57:57.623Z,1009.25
2018-11-04T07:58:57.557Z,1009.22
2018-11-04T08:00:50.404Z,1009.22
2018-11-04T08:01:50.333Z,1009.25
2018-11-04T08:03:43.134Z,1009.25
2018-11-04T08:04:43.079Z,1009.27
2018-11-04T08:06:35.885Z,1009.22
2018-11-04T08:07:35.888Z,1009.22
2018-11-04T08:09:28.630Z,1009.16
2018-11-04T08:10:28.599Z,1009.22
2018-11-04T08:12:21.413Z,1009.20
2018-11-04T08:13:21.411Z,1009.20
2018-11-04T08:15:14.151Z,1009.17
2018-11-04T08:16:14.143Z,1009.18
2018-11-04T08:18:06.919Z,1009.17
2018-11-04T08:19:06.867Z,1009.17
2018-11-04T08:20:59.674Z,1009.16
2018-11-04T08:21:59.630Z,1009.19
2018-11-04T08:23:52.456Z,1009.17
2018-11-04T08:24:52.390Z,1009.15
2018-11-04T08:26:45.189Z,1009.14
2018-11-04T08:27:45.241Z,1009.12
2018-11-04T08:29:37.964Z,1009.13
2018-11-04T08:30:37.906Z,1009.14
2018-11-04T08:32:30.729Z,1009.10
2018-11-04T08:33:30.685Z,1009.12
2018-11-04T08:35:23.487Z,1009.08
2018-11-04T08:36:23.452Z,1009.09
2018-11-04T08:38:16.270Z,1009.06
2018-11-04T08:39:16.214Z,1009.10
2018-11-04T08:41:09.002Z,1009.10
2018-11-04T08:42:08.966Z,1009.12
2018-11-04T08:44:01.784Z,1009.13
2018-11-04T08:45:01.727Z,1009.14
2018-11-04T08:46:54.529Z,1009.10
2018-11-04T08:47:54.501Z,1009.06
2018-11-04T08:49:47.300Z,1009.02
2018-11-04T08:50:47.257Z,1009.03
2018-11-04T08:52:40.169Z,1009.02
2018-11-04T08:53:40.026Z,1008.99
2018-11-04T08:55:32.845Z,1008.95
2018-11-04T08:56:32.785Z,1008.96
2018-11-04T08:58:25.587Z,1008.94
2018-11-04T08:59:25.558Z,1008.96
2018-11-04T09:01:18.361Z,1008.97
2018-11-04T09:02:18.310Z,1008.93
2018-11-04T09:04:11.107Z,1008.88
2018-11-04T09:05:11.076Z,1008.87
2018-11-04T09:07:03.902Z,1008.87
2018-11-04T09:08:03.841Z,1008.88
2018-11-04T09:09:56.657Z,1008.89
2018-11-04T09:10:56.603Z,1008.87
2018-11-04T09:12:49.915Z,1008.88
2018-11-04T09:13:49.878Z,1008.82
2018-11-04T09:15:42.685Z,1008.83
2018-11-04T09:16:42.645Z,1008.79
2018-11-04T09:18:35.444Z,1008.81
2018-11-04T09:19:35.417Z,1008.85
2018-11-04T09:21:28.219Z,1008.81
2018-11-04T09:22:28.202Z,1008.80
2018-11-04T09:24:20.986Z,1008.80
2018-11-04T09:25:20.926Z,1008.79
2018-11-04T09:27:13.723Z,1008.83
2018-11-04T09:28:13.686Z,1008.75
2018-11-04T09:30:06.518Z,1008.70
2018-11-04T09:31:06.458Z,1008.75
2018-11-04T09:32:59.261Z,1008.73
2018-11-04T09:33:59.224Z,1008.75
2018-11-04T09:35:52.310Z,1008.76
2018-11-04T09:36:51.995Z,1008.76
2018-11-04T09:38:44.809Z,1008.77
2018-11-04T09:39:44.765Z,1008.75
2018-11-04T09:41:37.582Z,1008.77
2018-11-04T09:42:37.529Z,1008.76
2018-11-04T09:44:30.328Z,1008.77
2018-11-04T09:45:30.287Z,1008.77
2018-11-04T09:47:23.599Z,1008.82
2018-11-04T09:48:23.544Z,1008.82
2018-11-04T09:50:16.364Z,1008.81
2018-11-04T09:51:16.319Z,1008.84
2018-11-04T09:53:09.119Z,1008.85
2018-11-04T09:54:09.075Z,1008.81
2018-11-04T09:56:01.904Z,1008.77
2018-11-04T09:57:01.844Z,1008.77
2018-11-04T09:58:54.665Z,1008.76
2018-11-04T09:59:54.613Z,1008.76
2018-11-04T10:01:47.424Z,1008.76
2018-11-04T10:02:47.380Z,1008.78
2018-11-04T10:04:40.189Z,1008.73
2018-11-04T10:05:40.137Z,1008.75
2018-11-04T10:07:32.971Z,1008.71
2018-11-04T10:08:32.913Z,1008.74
2018-11-04T10:10:25.741Z,1008.67
2018-11-04T10:11:25.714Z,1008.64
2018-11-04T10:13:18.610Z,1008.66
2018-11-04T10:14:18.476Z,1008.70
2018-11-04T10:16:11.313Z,1008.65
2018-11-04T10:17:11.244Z,1008.66
2018-11-04T10:19:04.170Z,1008.66
2018-11-04T10:20:04.470Z,1008.67
2018-11-04T10:21:56.835Z,1008.61
2018-11-04T10:22:56.806Z,1008.59
2018-11-04T10:24:49.605Z,1008.61
2018-11-04T10:25:49.564Z,1008.64
2018-11-04T10:27:42.867Z,1008.62
2018-11-04T10:28:42.810Z,1008.60
2018-11-04T10:30:35.626Z,1008.61
2018-11-04T10:31:35.601Z,1008.60
2018-11-04T10:33:28.399Z,1008.55
2018-11-04T10:34:28.357Z,1008.51
2018-11-04T10:36:21.218Z,1008.52
2018-11-04T10:37:21.169Z,1008.50
2018-11-04T10:39:13.948Z,1008.47
2018-11-04T10:40:13.907Z,1008.45
2018-11-04T10:42:06.742Z,1008.41
2018-11-04T10:43:06.685Z,1008.38
2018-11-04T10:44:59.495Z,1008.37
2018-11-04T10:45:59.449Z,1008.33
2018-11-04T10:47:52.231Z,1008.32
2018-11-04T10:48:52.192Z,1008.29
2018-11-04T10:50:45.511Z,1008.31
2018-11-04T10:51:45.470Z,1008.29
2018-11-04T10:53:38.280Z,1008.24
2018-11-04T10:54:38.226Z,1008.26
2018-11-04T10:56:31.557Z,1008.18
2018-11-04T10:57:31.501Z,1008.18
2018-11-04T10:59:24.317Z,1008.13
2018-11-04T11:00:24.286Z,1008.15
2018-11-04T11:02:17.095Z,1008.06
2018-11-04T11:03:17.036Z,1008.05
2018-11-04T11:05:09.865Z,1008.03
2018-11-04T11:06:09.827Z,1008.02
2018-11-04T11:08:02.616Z,1007.99
2018-11-04T11:09:02.583Z,1007.94
2018-11-04T11:10:55.405Z,1007.89
2018-11-04T11:11:55.347Z,1007.89
2018-11-04T11:13:48.158Z,1007.81
2018-11-04T11:14:48.127Z,1007.83
2018-11-04T11:16:40.963Z,1007.82
2018-11-04T11:17:40.902Z,1007.78
2018-11-04T11:19:34.199Z,1007.74
2018-11-04T11:20:34.174Z,1007.72
2018-11-04T11:22:27.018Z,1007.66
2018-11-04T11:23:26.942Z,1007.65
2018-11-04T11:25:19.753Z,1007.62
2018-11-04T11:26:19.723Z,1007.61
2018-11-04T11:28:12.536Z,1007.61
2018-11-04T11:29:12.510Z,1007.57
2018-11-04T11:31:05.322Z,1007.61
2018-11-04T11:32:05.258Z,1007.60
2018-11-04T11:33:58.558Z,1007.58
2018-11-04T11:34:58.517Z,1007.57
2018-11-04T11:36:51.833Z,1007.54
2018-11-04T11:37:51.843Z,1007.50
2018-11-04T11:39:44.622Z,1007.48
2018-11-04T11:40:44.572Z,1007.48
2018-11-04T11:42:37.400Z,1007.45
2018-11-04T11:43:37.343Z,1007.42
2018-11-04T11:45:30.160Z,1007.37
2018-11-04T11:46:30.123Z,1007.35
2018-11-04T11:48:22.944Z,1007.34
2018-11-04T11:49:22.898Z,1007.32
2018-11-04T11:51:16.190Z,1007.22
2018-11-04T11:52:16.161Z,1007.23
2018-11-04T11:54:09.470Z,1007.20
2018-11-04T11:55:09.425Z,1007.14
2018-11-04T11:57:02.253Z,1007.12
2018-11-04T11:58:02.192Z,1007.13
2018-11-04T11:59:55.004Z,1007.10
2018-11-04T12:00:54.964Z,1007.09
2018-11-04T12:02:48.294Z,1007.01
2018-11-04T12:03:48.227Z,1006.99
2018-11-04T12:05:41.048Z,1006.94
2018-11-04T12:06:41.000Z,1006.95
2018-11-04T12:08:33.834Z,1006.89
2018-11-04T12:09:33.773Z,1006.90
2018-11-04T12:11:26.615Z,1006.86
2018-11-04T12:12:26.558Z,1006.86
2018-11-04T12:14:19.383Z,1006.82
2018-11-04T12:15:19.328Z,1006.83
2018-11-04T12:17:12.139Z,1006.81
2018-11-04T12:18:12.099Z,1006.82
2018-11-04T12:20:04.929Z,1006.80
2018-11-04T12:21:04.876Z,1006.78
2018-11-04T12:22:57.685Z,1006.75
2018-11-04T12:23:57.655Z,1006.75
2018-11-04T12:25:50.485Z,1006.71
2018-11-04T12:26:50.428Z,1006.71
2018-11-04T12:28:43.285Z,1006.70
2018-11-04T12:29:43.220Z,1006.71
2018-11-04T12:31:36.050Z,1006.70
2018-11-04T12:32:35.998Z,1006.66
2018-11-04T12:34:28.818Z,1006.70
2018-11-04T12:35:28.783Z,1006.70
2018-11-04T12:37:21.599Z,1006.66
2018-11-04T12:38:21.541Z,1006.66
2018-11-04T12:40:14.396Z,1006.67
2018-11-04T12:41:14.338Z,1006.66
2018-11-04T12:43:07.640Z,1006.66
2018-11-04T12:44:07.606Z,1006.65
2018-11-04T12:46:00.456Z,1006.64
2018-11-04T12:47:00.386Z,1006.63
2018-11-04T12:48:53.206Z,1006.65
2018-11-04T12:49:53.174Z,1006.60
2018-11-04T12:51:45.979Z,1006.59
2018-11-04T12:52:45.968Z,1006.57
2018-11-04T12:54:39.256Z,1006.53
2018-11-04T12:55:39.200Z,1006.52
2018-11-04T12:57:32.020Z,1006.51
2018-11-04T12:58:31.988Z,1006.53
2018-11-04T13:00:25.281Z,1006.49
2018-11-04T13:01:25.244Z,1006.52
2018-11-04T13:03:18.559Z,1006.44
2018-11-04T13:04:18.509Z,1006.46
2018-11-04T13:06:11.834Z,1006.45
2018-11-04T13:07:11.776Z,1006.44
2018-11-04T13:09:04.601Z,1006.41
2018-11-04T13:10:04.563Z,1006.37
2018-11-04T13:11:57.371Z,1006.34
2018-11-04T13:12:57.320Z,1006.32
2018-11-04T13:14:50.131Z,1006.33
2018-11-04T13:15:50.112Z,1006.30
2018-11-04T13:17:43.412Z,1006.30
2018-11-04T13:18:43.379Z,1006.26
2018-11-04T13:20:36.172Z,1006.28
2018-11-04T13:21:36.137Z,1006.25
2018-11-04T13:23:28.979Z,1006.24
2018-11-04T13:24:28.917Z,1006.13
2018-11-04T13:26:21.716Z,1006.08
2018-11-04T13:27:21.683Z,1006.08
2018-11-04T13:29:14.507Z,1006.01
2018-11-04T13:30:14.456Z,1005.96
2018-11-04T13:32:07.797Z,1005.88
2018-11-04T13:33:07.729Z,1005.84
2018-11-04T13:35:00.536Z,1005.79
2018-11-04T13:36:00.560Z,1005.72
2018-11-04T13:37:53.396Z,1005.65
2018-11-04T13:38:53.345Z,1005.63
2018-11-04T13:40:46.164Z,1005.60
2018-11-04T13:41:46.125Z,1005.60
2018-11-04T13:43:38.953Z,1005.60
2018-11-04T13:44:38.903Z,1005.60
2018-11-04T13:46:31.748Z,1005.54
2018-11-04T13:47:31.714Z,1005.50
2018-11-04T13:49:24.630Z,1005.54
2018-11-04T13:50:24.494Z,1005.52
2018-11-04T13:52:17.309Z,1005.50
2018-11-04T13:53:17.277Z,1005.46
2018-11-04T13:55:10.107Z,1005.43
2018-11-04T13:56:10.049Z,1005.36
2018-11-04T13:58:02.863Z,1005.35
2018-11-04T13:59:02.819Z,1005.34
2018-11-04T14:00:55.650Z,1005.31
2018-11-04T14:01:55.606Z,1005.29
2018-11-04T14:03:48.425Z,1005.27
2018-11-04T14:04:48.380Z,1005.24
2018-11-04T14:06:41.197Z,1005.30
2018-11-04T14:07:41.158Z,1005.30
2018-11-04T14:09:33.980Z,1005.31
2018-11-04T14:10:33.943Z,1005.38
2018-11-04T14:12:26.773Z,1005.41
2018-11-04T14:13:26.781Z,1005.38
2018-11-04T14:15:20.055Z,1005.43
2018-11-04T14:16:20.005Z,1005.43
2018-11-04T14:18:12.798Z,1005.36
2018-11-04T14:19:12.765Z,1005.32
2018-11-04T14:21:05.624Z,1005.28
2018-11-04T14:22:05.577Z,1005.33
2018-11-04T14:23:58.470Z,1005.31
2018-11-04T14:24:58.351Z,1005.32
2018-11-04T14:26:51.181Z,1005.32
2018-11-04T14:27:51.123Z,1005.33
2018-11-04T14:29:43.935Z,1005.28
2018-11-04T14:30:43.906Z,1005.23
2018-11-04T14:32:36.720Z,1005.28
2018-11-04T14:33:36.669Z,1005.26
2018-11-04T14:35:29.477Z,1005.36
2018-11-04T14:36:29.434Z,1005.42
2018-11-04T14:38:22.273Z,1005.36
2018-11-04T14:39:22.216Z,1005.37
2018-11-04T14:41:15.034Z,1005.40
2018-11-04T14:42:14.980Z,1005.40
2018-11-04T14:44:07.836Z,1005.40
2018-11-04T14:45:07.764Z,1005.40
2018-11-04T14:47:00.590Z,1005.44
2018-11-04T14:48:00.544Z,1005.46
2018-11-04T14:49:53.349Z,1005.44
2018-11-04T14:50:53.312Z,1005.39
2018-11-04T14:52:46.157Z,1005.36
2018-11-04T14:53:46.305Z,1005.34
2018-11-04T14:55:38.902Z,1005.36
2018-11-04T14:56:38.860Z,1005.32
2018-11-04T14:58:31.695Z,1005.26
2018-11-04T14:59:31.636Z,1005.29
2018-11-04T15:01:24.501Z,1005.26
2018-11-04T15:02:24.418Z,1005.33
2018-11-04T15:04:17.225Z,1005.30
2018-11-04T15:05:17.175Z,1005.29
2018-11-04T15:07:10.007Z,1005.26
2018-11-04T15:08:09.957Z,1005.25
2018-11-04T15:10:03.280Z,1005.21
2018-11-04T15:11:03.299Z,1005.24
2018-11-04T15:12:56.053Z,1005.22
2018-11-04T15:13:55.981Z,1005.17
2018-11-04T15:15:48.795Z,1005.16
2018-11-04T15:16:48.777Z,1005.07
2018-11-04T15:18:41.637Z,1005.04
2018-11-04T15:19:41.543Z,1004.95
2018-11-04T15:21:34.358Z,1004.99
2018-11-04T15:22:34.318Z,1004.96
2018-11-04T15:24:27.145Z,1004.94
2018-11-04T15:25:27.075Z,1004.94
2018-11-04T15:27:19.908Z,1005.04
2018-11-04T15:28:19.862Z,1005.07
2018-11-04T15:30:12.684Z,1005.05
2018-11-04T15:31:12.686Z,1005.04
2018-11-04T15:33:05.448Z,1004.97
2018-11-04T15:34:05.414Z,1004.92
2018-11-04T15:35:58.227Z,1004.94
2018-11-04T15:36:58.169Z,1004.95
2018-11-04T15:38:51.004Z,1004.92
2018-11-04T15:39:50.937Z,1004.89
2018-11-04T15:41:43.772Z,1004.88
2018-11-04T15:42:43.712Z,1004.88
2018-11-04T15:44:36.533Z,1004.91
2018-11-04T15:45:36.489Z,1004.88
2018-11-04T15:47:29.277Z,1004.89
2018-11-04T15:48:29.234Z,1004.89
2018-11-04T15:50:22.063Z,1004.89
2018-11-04T15:51:22.003Z,1004.88
2018-11-04T15:53:14.823Z,1004.86
2018-11-04T15:54:14.779Z,1004.86
2018-11-04T15:56:07.597Z,1004.82
2018-11-04T15:57:07.586Z,1004.81
2018-11-04T15:59:00.353Z,1004.85
2018-11-04T16:00:00.318Z,1004.86
2018-11-04T16:01:53.143Z,1004.90
2018-11-04T16:02:53.089Z,1004.89
2018-11-04T16:04:45.888Z,1004.91
2018-11-04T16:05:45.915Z,1004.95
2018-11-04T16:07:38.764Z,1004.94
2018-11-04T16:08:38.628Z,1004.92
2018-11-04T16:10:31.455Z,1004.94
2018-11-04T16:11:31.410Z,1004.93
2018-11-04T16:13:24.231Z,1004.96
2018-11-04T16:14:24.231Z,1004.96
2018-11-04T16:16:16.988Z,1004.95
2018-11-04T16:17:16.937Z,1004.90
2018-11-04T16:19:09.746Z,1004.89
2018-11-04T16:20:09.711Z,1004.89
2018-11-04T16:22:02.520Z,1004.87
2018-11-04T16:23:02.482Z,1004.86
2018-11-04T16:24:55.286Z,1004.87
2018-11-04T16:25:55.260Z,1004.87
2018-11-04T16:27:48.069Z,1004.84
2018-11-04T16:28:48.014Z,1004.83
2018-11-04T16:30:40.830Z,1004.80
2018-11-04T16:31:40.794Z,1004.85
2018-11-04T16:33:34.091Z,1004.87
2018-11-04T16:34:34.041Z,1004.86
2018-11-04T16:36:26.868Z,1004.82
2018-11-04T16:37:26.805Z,1004.81
2018-11-04T16:39:19.617Z,1004.78
2018-11-04T16:40:19.594Z,1004.77
2018-11-04T16:42:13.394Z,1004.75
2018-11-04T16:43:13.387Z,1004.75
2018-11-04T16:45:06.161Z,1004.74
2018-11-04T16:46:06.096Z,1004.74
2018-11-04T16:47:58.921Z,1004.70
2018-11-04T16:48:58.864Z,1004.74
2018-11-04T16:50:51.667Z,1004.69
2018-11-04T16:51:51.636Z,1004.67
2018-11-04T16:53:44.452Z,1004.70
2018-11-04T16:54:44.393Z,1004.68
2018-11-04T16:56:37.197Z,1004.64
2018-11-04T16:57:37.162Z,1004.64
2018-11-04T16:59:29.977Z,1004.63
2018-11-04T17:00:29.927Z,1004.65
2018-11-04T17:02:22.854Z,1004.64
2018-11-04T17:03:22.700Z,1004.61
2018-11-04T17:05:15.672Z,1004.63
2018-11-04T17:06:15.468Z,1004.65
2018-11-04T17:08:08.263Z,1004.77
2018-11-04T17:09:08.224Z,1004.73
2018-11-04T17:11:01.038Z,1004.72
2018-11-04T17:12:00.983Z,1004.75
2018-11-04T17:13:53.860Z,1004.83
2018-11-04T17:14:53.752Z,1004.83
2018-11-04T17:16:47.042Z,1004.79
2018-11-04T17:17:47.004Z,1004.77
2018-11-04T17:19:39.836Z,1004.76
2018-11-04T17:20:39.769Z,1004.76
2018-11-04T17:22:32.600Z,1004.77
2018-11-04T17:23:32.564Z,1004.77
2018-11-04T17:25:25.386Z,1004.75